createdAt,value
2024-01-31T00:00:29.274Z,-3.23
2024-01-31T00:02:32.005Z,-3.25
2024-01-31T00:04:34.830Z,-3.24
2024-01-31T00:06:37.785Z,-3.25
2024-01-31T00:08:41.226Z,-3.26
2024-01-31T00:10:44.158Z,-3.28
2024-01-31T00:12:47.064Z,-3.30
2024-01-31T00:14:49.972Z,-3.34
2024-01-31T00:16:52.833Z,-3.33
2024-01-31T00:18:55.932Z,-3.32
2024-01-31T00:20:58.931Z,-3.29
2024-01-31T00:23:01.712Z,-3.28
2024-01-31T00:25:04.874Z,-3.27
2024-01-31T00:27:07.892Z,-3.27
2024-01-31T00:29:10.625Z,-3.28
2024-01-31T00:31:13.908Z,-3.32
2024-01-31T00:33:16.732Z,-3.32
2024-01-31T00:35:19.582Z,-3.35
2024-01-31T00:37:22.463Z,-3.35
2024-01-31T00:39:29.620Z,-3.38
2024-01-31T00:41:32.720Z,-3.38
2024-01-31T00:43:35.820Z,-3.41
2024-01-31T00:45:38.641Z,-3.48
2024-01-31T00:47:42.392Z,-3.50
2024-01-31T00:49:45.294Z,-3.51
2024-01-31T00:51:48.192Z,-3.58
2024-01-31T00:53:50.892Z,-3.61
2024-01-31T00:55:53.703Z,-3.65
2024-01-31T00:57:56.629Z,-3.68
2024-01-31T00:59:59.442Z,-3.73
2024-01-31T01:02:02.349Z,-3.78
2024-01-31T01:04:05.404Z,-3.81
2024-01-31T01:06:08.232Z,-3.86
2024-01-31T01:08:11.090Z,-3.87
2024-01-31T01:10:16.925Z,-3.91
2024-01-31T01:12:19.986Z,-3.96
2024-01-31T01:14:22.898Z,-3.98
2024-01-31T01:16:25.845Z,-3.99
2024-01-31T01:18:28.690Z,-4.01
2024-01-31T01:20:31.622Z,-4.02
2024-01-31T01:22:34.545Z,-4.04
2024-01-31T01:24:37.519Z,-4.04
2024-01-31T01:26:43.282Z,-4.02
2024-01-31T01:28:46.149Z,-4.00
2024-01-31T01:30:48.905Z,-4.00
2024-01-31T01:32:51.853Z,-3.96
2024-01-31T01:34:54.672Z,-3.92
2024-01-31T01:36:57.586Z,-3.88
2024-01-31T01:39:00.512Z,-3.81
2024-01-31T01:41:03.789Z,-3.79
2024-01-31T01:43:18.987Z,-3.76
2024-01-31T01:45:21.993Z,-3.69
2024-01-31T01:47:26.129Z,-3.68
2024-01-31T01:49:30.701Z,-3.67
2024-01-31T01:51:34.217Z,-3.65
2024-01-31T01:53:40.310Z,-3.54
2024-01-31T01:55:44.460Z,-3.55
2024-01-31T01:57:47.772Z,-3.50
2024-01-31T01:59:51.582Z,-3.46
2024-01-31T02:01:54.547Z,-3.38
2024-01-31T02:04:00.374Z,-3.36
2024-01-31T02:06:04.103Z,-3.36
2024-01-31T02:08:07.963Z,-3.37
2024-01-31T02:10:11.272Z,-3.31
2024-01-31T02:12:15.295Z,-3.34
2024-01-31T02:14:18.367Z,-3.41
2024-01-31T02:16:21.384Z,-3.47
2024-01-31T02:18:28.907Z,-3.54
2024-01-31T02:20:31.657Z,-3.52
2024-01-31T02:22:34.712Z,-3.55
2024-01-31T02:24:37.469Z,-3.55
2024-01-31T02:26:40.281Z,-3.59
2024-01-31T02:28:43.106Z,-3.55
2024-01-31T02:30:45.941Z,-3.51
2024-01-31T02:32:48.768Z,-3.49
2024-01-31T02:34:51.808Z,-3.40
2024-01-31T02:36:54.677Z,-3.34
2024-01-31T02:38:57.617Z,-3.29
2024-01-31T02:41:00.369Z,-3.25
2024-01-31T02:43:03.303Z,-3.23
2024-01-31T02:45:06.671Z,-3.24
2024-01-31T02:47:09.515Z,-3.20
2024-01-31T02:49:12.299Z,-3.17
2024-01-31T02:51:15.122Z,-3.14
2024-01-31T02:53:18.113Z,-3.14
2024-01-31T02:55:20.970Z,-3.15
2024-01-31T02:57:23.783Z,-3.14
2024-01-31T02:59:26.608Z,-3.12
2024-01-31T03:01:29.590Z,-3.09
2024-01-31T03:03:32.563Z,-3.10
2024-01-31T03:05:35.451Z,-3.08
2024-01-31T03:07:38.385Z,-3.06
2024-01-31T03:09:41.929Z,-3.05
2024-01-31T03:11:44.677Z,-3.01
2024-01-31T03:13:47.991Z,-3.05
2024-01-31T03:15:50.909Z,-3.03
2024-01-31T03:17:54.126Z,-3.07
2024-01-31T03:19:58.012Z,-3.01
2024-01-31T03:22:08.864Z,-3.03
2024-01-31T03:24:14.652Z,-3.04
2024-01-31T03:26:17.414Z,-3.08
2024-01-31T03:28:21.918Z,-3.06
2024-01-31T03:30:24.823Z,-3.04
2024-01-31T03:32:27.740Z,-3.08
2024-01-31T03:34:30.474Z,-3.10
2024-01-31T03:36:36.545Z,-3.14
2024-01-31T03:38:42.965Z,-3.13
2024-01-31T03:40:46.037Z,-3.16
2024-01-31T03:42:48.948Z,-3.12
2024-01-31T03:44:51.860Z,-3.11
2024-01-31T03:46:54.715Z,-3.11
2024-01-31T03:48:58.172Z,-3.10
2024-01-31T03:51:01.532Z,-3.09
2024-01-31T03:53:04.387Z,-3.09
2024-01-31T03:55:07.547Z,-3.08
2024-01-31T03:57:10.861Z,-3.07
2024-01-31T03:59:13.615Z,-3.06
2024-01-31T04:01:18.442Z,-3.02
2024-01-31T04:03:22.619Z,-3.01
2024-01-31T04:05:25.706Z,-3.00
2024-01-31T04:07:29.692Z,-2.99
2024-01-31T04:09:32.482Z,-2.95
2024-01-31T04:11:35.904Z,-2.94
2024-01-31T04:13:39.124Z,-2.97
2024-01-31T04:15:42.330Z,-2.94
2024-01-31T04:17:45.524Z,-2.97
2024-01-31T04:19:50.611Z,-2.93
2024-01-31T04:21:55.112Z,-2.97
2024-01-31T04:23:57.981Z,-2.93
2024-01-31T04:26:03.116Z,-2.95
2024-01-31T04:28:06.110Z,-2.92
2024-01-31T04:30:12.639Z,-2.95
2024-01-31T04:32:15.429Z,-2.89
2024-01-31T04:34:18.229Z,-2.92
2024-01-31T04:36:21.083Z,-2.90
2024-01-31T04:38:23.904Z,-2.94
2024-01-31T04:40:26.724Z,-2.86
2024-01-31T04:42:29.496Z,-2.85
2024-01-31T04:44:32.219Z,-2.85
2024-01-31T04:46:35.485Z,-2.85
2024-01-31T04:48:38.417Z,-2.87
2024-01-31T04:50:41.258Z,-2.87
2024-01-31T04:52:44.118Z,-2.88
2024-01-31T04:54:46.861Z,-2.83
2024-01-31T04:56:49.638Z,-2.83
2024-01-31T04:58:52.352Z,-2.83
2024-01-31T05:00:55.059Z,-2.81
2024-01-31T05:02:57.844Z,-2.82
2024-01-31T05:05:01.821Z,-2.84
2024-01-31T05:07:06.575Z,-2.88
2024-01-31T05:09:10.236Z,-2.88
2024-01-31T05:11:16.064Z,-2.84
2024-01-31T05:13:18.813Z,-2.78
2024-01-31T05:15:21.580Z,-2.77
2024-01-31T05:17:24.355Z,-2.70
2024-01-31T05:19:30.726Z,-2.71
2024-01-31T05:21:34.299Z,-2.70
2024-01-31T05:23:37.000Z,-2.70
2024-01-31T05:25:39.868Z,-2.65
2024-01-31T05:27:42.775Z,-2.61
2024-01-31T05:29:45.700Z,-2.61
2024-01-31T05:31:48.506Z,-2.53
2024-01-31T05:33:53.084Z,-2.52
2024-01-31T05:35:55.817Z,-2.46
2024-01-31T05:37:58.531Z,-2.40
2024-01-31T05:40:01.543Z,-2.37
2024-01-31T05:42:06.064Z,-2.35
2024-01-31T05:44:08.929Z,-2.29
2024-01-31T05:46:11.711Z,-2.26
2024-01-31T05:48:15.877Z,-2.30
2024-01-31T05:50:18.871Z,-2.25
2024-01-31T05:52:21.672Z,-2.24
2024-01-31T05:54:24.403Z,-2.22
2024-01-31T05:56:27.284Z,-2.22
2024-01-31T05:58:30.498Z,-2.22
2024-01-31T06:00:33.174Z,-2.23
2024-01-31T06:02:35.874Z,-2.22
2024-01-31T06:04:38.673Z,-2.22
2024-01-31T06:06:41.471Z,-2.20
2024-01-31T06:08:44.159Z,-2.16
2024-01-31T06:10:48.461Z,-2.13
2024-01-31T06:12:51.685Z,-2.09
2024-01-31T06:14:54.448Z,-2.04
2024-01-31T06:16:57.125Z,-2.03
2024-01-31T06:19:03.361Z,-2.02
2024-01-31T06:21:06.691Z,-1.99
2024-01-31T06:23:11.352Z,-2.02
2024-01-31T06:25:14.215Z,-2.04
2024-01-31T06:27:17.042Z,-2.03
2024-01-31T06:29:20.279Z,-2.05
2024-01-31T06:31:27.835Z,-2.00
2024-01-31T06:33:33.255Z,-1.98
2024-01-31T06:35:36.927Z,-1.89
2024-01-31T06:37:39.837Z,-1.85
2024-01-31T06:39:42.714Z,-1.77
2024-01-31T06:41:45.644Z,-1.81
2024-01-31T06:43:48.429Z,-1.76
2024-01-31T06:45:51.152Z,-1.75
2024-01-31T06:47:54.723Z,-1.74
2024-01-31T06:49:57.627Z,-1.72
2024-01-31T06:52:00.378Z,-1.68
2024-01-31T06:54:03.022Z,-1.60
2024-01-31T06:56:06.216Z,-1.62
2024-01-31T06:58:08.957Z,-1.67
2024-01-31T07:00:12.024Z,-1.75
2024-01-31T07:02:14.833Z,-1.76
2024-01-31T07:04:17.604Z,-1.78
2024-01-31T07:06:20.397Z,-1.78
2024-01-31T07:08:23.177Z,-1.73
2024-01-31T07:10:26.088Z,-1.72
2024-01-31T07:12:28.796Z,-1.55
2024-01-31T07:14:31.505Z,-1.54
2024-01-31T07:16:36.969Z,-1.51
2024-01-31T07:18:44.850Z,-1.60
2024-01-31T07:20:47.802Z,-1.60
2024-01-31T07:22:50.582Z,-1.60
2024-01-31T07:24:53.362Z,-1.58
2024-01-31T07:26:56.592Z,-1.55
2024-01-31T07:29:00.242Z,-1.48
2024-01-31T07:31:04.092Z,-1.41
2024-01-31T07:33:07.268Z,-1.51
2024-01-31T07:35:11.203Z,-1.49
2024-01-31T07:37:14.614Z,-1.39
2024-01-31T07:39:17.706Z,-1.40
2024-01-31T07:41:21.813Z,-1.31
2024-01-31T07:43:25.631Z,-1.30
2024-01-31T07:45:28.606Z,-1.20
2024-01-31T07:47:31.362Z,-1.15
2024-01-31T07:49:34.219Z,-1.21
2024-01-31T07:51:44.346Z,-1.23
2024-01-31T07:53:47.062Z,-1.31
2024-01-31T07:55:49.904Z,-1.33
2024-01-31T07:57:52.706Z,-1.33
2024-01-31T07:59:55.640Z,-1.39
2024-01-31T08:01:58.444Z,-1.37
2024-01-31T08:04:01.375Z,-1.37
2024-01-31T08:06:06.629Z,-1.40
2024-01-31T08:08:09.490Z,-1.34
2024-01-31T08:10:13.907Z,-1.43
2024-01-31T08:12:16.870Z,-1.42
2024-01-31T08:14:19.904Z,-1.34
2024-01-31T08:16:22.841Z,-1.32
2024-01-31T08:18:25.551Z,-1.28
2024-01-31T08:20:28.901Z,-1.24
2024-01-31T08:22:36.858Z,-1.17
2024-01-31T08:24:41.629Z,-1.15
2024-01-31T08:26:44.313Z,-1.14
2024-01-31T08:28:48.608Z,-1.10
2024-01-31T08:30:52.794Z,-1.07
2024-01-31T08:32:55.914Z,-1.03
2024-01-31T08:35:17.204Z,-1.04
2024-01-31T08:37:19.991Z,-1.01
2024-01-31T08:39:24.239Z,-1.10
2024-01-31T08:41:27.034Z,-1.18
2024-01-31T08:43:29.798Z,-1.21
2024-01-31T08:45:32.573Z,-1.23
2024-01-31T08:47:35.403Z,-1.25
2024-01-31T08:49:38.772Z,-1.28
2024-01-31T08:51:42.103Z,-1.19
2024-01-31T08:53:44.854Z,-0.98
2024-01-31T08:55:58.280Z,-0.93
2024-01-31T08:58:07.729Z,-0.96
2024-01-31T09:00:11.581Z,-1.13
2024-01-31T09:02:14.629Z,-1.26
2024-01-31T09:04:20.342Z,-1.38
2024-01-31T09:06:25.071Z,-1.44
2024-01-31T09:08:28.527Z,-1.42
2024-01-31T09:10:31.217Z,-1.39
2024-01-31T09:12:34.176Z,-1.30
2024-01-31T09:14:37.068Z,-1.22
2024-01-31T09:16:39.851Z,-1.22
2024-01-31T09:18:42.715Z,-1.23
2024-01-31T09:20:45.526Z,-1.24
2024-01-31T09:22:48.403Z,-1.28
2024-01-31T09:24:51.444Z,-1.27
2024-01-31T09:26:54.238Z,-1.36
2024-01-31T09:28:59.072Z,-1.41
2024-01-31T09:31:02.203Z,-1.42
2024-01-31T09:33:05.090Z,-1.45
2024-01-31T09:35:08.647Z,-1.54
2024-01-31T09:37:11.780Z,-1.57
2024-01-31T09:39:15.798Z,-1.62
2024-01-31T09:41:18.936Z,-1.60
2024-01-31T09:43:21.916Z,-1.70
2024-01-31T09:45:29.252Z,-1.73
2024-01-31T09:47:32.695Z,-1.72
2024-01-31T09:49:35.804Z,-1.72
2024-01-31T09:51:39.092Z,-1.73
2024-01-31T09:53:46.555Z,-1.79
2024-01-31T09:55:53.601Z,-1.78
2024-01-31T09:57:57.326Z,-1.78
2024-01-31T10:00:02.240Z,-1.83
2024-01-31T10:02:11.113Z,-1.81
2024-01-31T10:04:16.299Z,-1.78
2024-01-31T10:06:21.213Z,-1.77
2024-01-31T10:08:24.528Z,-1.74
2024-01-31T10:10:27.374Z,-1.72
2024-01-31T10:12:30.206Z,-1.68
2024-01-31T10:14:32.985Z,-1.58
2024-01-31T10:16:36.551Z,-1.59
2024-01-31T10:18:40.207Z,-1.60
2024-01-31T10:20:45.689Z,-1.62
2024-01-31T10:22:48.509Z,-1.55
2024-01-31T10:24:52.082Z,-1.54
2024-01-31T10:26:56.346Z,-1.54
2024-01-31T10:29:08.378Z,-1.53
2024-01-31T10:31:14.813Z,-1.47
2024-01-31T10:33:18.510Z,-1.50
2024-01-31T10:35:33.837Z,-1.50
2024-01-31T10:37:55.887Z,-1.43
2024-01-31T10:40:02.113Z,-1.42
2024-01-31T10:42:10.034Z,-1.40
2024-01-31T10:44:16.471Z,-1.44
2024-01-31T10:46:20.008Z,-1.48
2024-01-31T10:48:22.999Z,-1.57
2024-01-31T10:50:26.140Z,-1.62
2024-01-31T10:52:34.489Z,-1.62
2024-01-31T10:54:44.436Z,-1.70
2024-01-31T10:56:48.437Z,-1.76
2024-01-31T10:58:52.678Z,-1.79
2024-01-31T11:00:56.885Z,-1.84
2024-01-31T11:03:01.741Z,-1.88
2024-01-31T11:05:05.757Z,-1.83
2024-01-31T11:07:23.269Z,-1.84
2024-01-31T11:09:27.964Z,-1.79
2024-01-31T11:11:30.679Z,-1.81
2024-01-31T11:13:37.756Z,-1.82
2024-01-31T11:15:41.644Z,-1.80
2024-01-31T11:17:46.536Z,-1.83
2024-01-31T11:19:52.896Z,-1.85
2024-01-31T11:21:55.936Z,-1.91
2024-01-31T11:23:58.709Z,-1.93
2024-01-31T11:26:03.699Z,-1.94
2024-01-31T11:28:06.808Z,-1.96
2024-01-31T11:30:11.876Z,-2.02
2024-01-31T11:32:14.866Z,-2.07
2024-01-31T11:34:18.104Z,-2.11
2024-01-31T11:36:20.895Z,-2.17
2024-01-31T11:38:23.671Z,-2.18
2024-01-31T11:40:27.020Z,-2.27
2024-01-31T11:42:31.690Z,-2.35
2024-01-31T11:44:36.825Z,-2.44
2024-01-31T11:46:39.744Z,-2.47
2024-01-31T11:53:59.171Z,-2.63
2024-01-31T11:56:02.333Z,-2.64
2024-01-31T11:58:05.191Z,-2.62
2024-01-31T12:00:08.753Z,-2.64
2024-01-31T12:02:11.633Z,-2.66
2024-01-31T12:04:14.904Z,-2.64
2024-01-31T12:06:20.891Z,-2.79
2024-01-31T12:08:28.417Z,-2.80
2024-01-31T12:10:31.682Z,-2.78
2024-01-31T12:12:42.814Z,-2.81
2024-01-31T12:14:46.020Z,-2.88
2024-01-31T12:16:48.752Z,-2.95
2024-01-31T12:19:02.365Z,-3.03
2024-01-31T12:21:06.944Z,-3.10
2024-01-31T12:23:10.031Z,-3.07
2024-01-31T12:25:12.899Z,-3.14
2024-01-31T12:27:17.753Z,-3.21
2024-01-31T12:29:22.724Z,-3.24
2024-01-31T12:31:25.965Z,-3.32
2024-01-31T12:33:28.768Z,-3.39
2024-01-31T12:35:31.645Z,-3.41
2024-01-31T12:37:35.230Z,-3.52
2024-01-31T12:39:38.068Z,-3.56
2024-01-31T12:41:41.167Z,-3.61
2024-01-31T12:43:43.942Z,-3.65
2024-01-31T12:45:47.347Z,-3.73
2024-01-31T12:47:51.141Z,-3.77
2024-01-31T12:49:54.043Z,-3.87
2024-01-31T12:51:56.860Z,-3.92
2024-01-31T12:53:59.558Z,-3.95
2024-01-31T12:56:02.316Z,-3.99
2024-01-31T12:58:05.114Z,-4.04
2024-01-31T13:00:08.403Z,-4.06
2024-01-31T13:02:11.219Z,-4.13
2024-01-31T13:04:14.048Z,-4.17
2024-01-31T13:06:17.532Z,-4.25
2024-01-31T13:08:20.903Z,-4.33
2024-01-31T13:10:24.030Z,-4.39
2024-01-31T13:12:26.776Z,-4.47
2024-01-31T13:14:29.964Z,-4.55
2024-01-31T13:16:39.320Z,-4.60
2024-01-31T13:18:49.255Z,-4.69
2024-01-31T13:20:52.394Z,-4.78
2024-01-31T13:22:55.187Z,-4.89
2024-01-31T13:24:58.064Z,-4.89
2024-01-31T13:27:00.850Z,-4.91
2024-01-31T13:29:04.132Z,-4.97
2024-01-31T13:31:06.813Z,-5.02
2024-01-31T13:33:09.634Z,-5.05
2024-01-31T13:35:12.922Z,-5.08
2024-01-31T13:37:15.703Z,-5.10
2024-01-31T13:39:18.537Z,-5.14
2024-01-31T13:41:24.954Z,-5.17
2024-01-31T13:43:27.639Z,-5.19
2024-01-31T13:45:30.454Z,-5.23
2024-01-31T13:47:33.296Z,-5.27
2024-01-31T13:49:36.375Z,-5.25
2024-01-31T13:51:43.865Z,-5.29
2024-01-31T13:53:46.775Z,-5.32
2024-01-31T13:55:49.781Z,-5.33
2024-01-31T13:57:52.717Z,-5.40
2024-01-31T13:59:55.656Z,-5.36
2024-01-31T14:01:58.507Z,-5.36
2024-01-31T14:04:01.726Z,-5.38
2024-01-31T14:06:04.898Z,-5.45
2024-01-31T14:08:08.579Z,-5.43
2024-01-31T14:10:12.473Z,-5.46
2024-01-31T14:12:15.988Z,-5.49
2024-01-31T14:14:19.748Z,-5.50
2024-01-31T14:16:22.470Z,-5.49
2024-01-31T14:18:25.591Z,-5.56
2024-01-31T14:20:28.830Z,-5.58
2024-01-31T14:24:38.175Z,-5.62
2024-01-31T14:26:40.975Z,-5.62
2024-01-31T14:28:43.760Z,-5.64
2024-01-31T14:30:47.049Z,-5.68
2024-01-31T14:32:52.214Z,-5.68
2024-01-31T14:34:56.391Z,-5.64
2024-01-31T14:37:00.101Z,-5.63
2024-01-31T14:39:03.503Z,-5.64
2024-01-31T14:41:06.294Z,-5.64
2024-01-31T14:43:09.081Z,-5.65
2024-01-31T14:45:12.046Z,-5.64
2024-01-31T14:47:15.249Z,-5.64
2024-01-31T14:49:19.324Z,-5.63
2024-01-31T14:51:22.179Z,-5.64
2024-01-31T14:53:25.122Z,-5.67
2024-01-31T14:55:28.004Z,-5.69
2024-01-31T14:57:30.699Z,-5.69
2024-01-31T14:59:36.303Z,-5.69
2024-01-31T15:01:39.990Z,-5.68
2024-01-31T15:03:42.794Z,-5.72
2024-01-31T15:05:46.192Z,-5.69
2024-01-31T15:07:51.768Z,-5.72
2024-01-31T15:09:55.650Z,-5.71
2024-01-31T15:12:00.113Z,-5.68
2024-01-31T15:14:06.161Z,-5.67
2024-01-31T15:16:15.107Z,-5.67
2024-01-31T15:18:18.980Z,-5.66
2024-01-31T15:20:22.014Z,-5.65
2024-01-31T15:22:27.680Z,-5.63
2024-01-31T15:24:30.543Z,-5.63
2024-01-31T15:26:36.974Z,-5.61
2024-01-31T15:29:05.933Z,-5.68
2024-01-31T15:31:17.141Z,-5.63
2024-01-31T15:33:22.066Z,-5.65
2024-01-31T15:35:25.048Z,-5.70
2024-01-31T15:37:27.944Z,-5.67
2024-01-31T15:39:30.742Z,-5.67
2024-01-31T15:41:36.857Z,-5.67
2024-01-31T15:43:43.856Z,-5.69
2024-01-31T15:45:47.147Z,-5.71
2024-01-31T15:47:50.421Z,-5.74
2024-01-31T15:49:53.544Z,-5.70
2024-01-31T15:51:56.258Z,-5.73
2024-01-31T15:53:58.919Z,-5.75
2024-01-31T15:56:05.103Z,-5.75
2024-01-31T15:58:07.871Z,-5.75
2024-01-31T16:00:11.527Z,-5.72
2024-01-31T16:02:14.458Z,-5.72
2024-01-31T16:04:17.243Z,-5.73
2024-01-31T16:06:20.221Z,-5.73
2024-01-31T16:08:23.489Z,-5.75
2024-01-31T16:10:30.071Z,-5.73
2024-01-31T16:12:33.745Z,-5.81
2024-01-31T16:14:39.337Z,-5.76
2024-01-31T16:16:43.092Z,-5.75
2024-01-31T16:18:46.064Z,-5.76
2024-01-31T16:20:49.012Z,-5.75
2024-01-31T16:22:52.003Z,-5.79
2024-01-31T16:24:55.182Z,-5.79
2024-01-31T16:26:58.043Z,-5.80
2024-01-31T16:29:00.763Z,-5.81
2024-01-31T16:31:04.714Z,-5.81
2024-01-31T16:33:07.838Z,-5.81
2024-01-31T16:35:10.629Z,-5.84
2024-01-31T16:37:13.352Z,-5.83
2024-01-31T16:39:17.328Z,-5.85
2024-01-31T16:41:23.940Z,-5.86
2024-01-31T16:43:26.726Z,-5.89
2024-01-31T16:45:29.558Z,-5.89
2024-01-31T16:47:32.447Z,-5.90
2024-01-31T16:49:35.403Z,-5.91
2024-01-31T16:51:38.203Z,-5.92
2024-01-31T16:53:40.932Z,-5.91
2024-01-31T16:55:43.657Z,-5.91
2024-01-31T16:57:46.435Z,-5.89
2024-01-31T16:59:49.350Z,-5.89
2024-01-31T17:01:52.048Z,-5.95
2024-01-31T17:03:54.993Z,-5.97
2024-01-31T17:05:58.009Z,-5.91
2024-01-31T17:08:00.955Z,-5.94
2024-01-31T17:10:04.974Z,-5.93
2024-01-31T17:12:07.943Z,-5.97
2024-01-31T17:14:10.817Z,-5.98
2024-01-31T17:16:15.651Z,-5.98
2024-01-31T17:18:21.716Z,-5.96
2024-01-31T17:20:25.157Z,-5.96
2024-01-31T17:22:27.870Z,-5.94
2024-01-31T17:24:30.561Z,-5.94
2024-01-31T17:26:33.443Z,-5.92
2024-01-31T17:28:36.332Z,-5.92
2024-01-31T17:30:43.325Z,-5.94
2024-01-31T17:32:46.355Z,-5.95
2024-01-31T17:34:49.194Z,-5.92
2024-01-31T17:36:52.059Z,-5.93
2024-01-31T17:38:54.866Z,-5.91
2024-01-31T17:40:57.564Z,-5.93
2024-01-31T17:43:00.632Z,-5.92
2024-01-31T17:45:03.696Z,-5.91
2024-01-31T17:47:07.215Z,-5.92
2024-01-31T17:49:09.937Z,-5.92
2024-01-31T17:51:12.817Z,-5.91
2024-01-31T17:53:15.689Z,-5.90
2024-01-31T17:55:20.264Z,-5.90
2024-01-31T17:57:22.992Z,-5.92
2024-01-31T17:59:25.733Z,-5.94
2024-01-31T18:01:28.500Z,-6.00
2024-01-31T18:03:33.287Z,-5.95
2024-01-31T18:05:36.115Z,-5.93
2024-01-31T18:07:38.891Z,-5.92
2024-01-31T18:09:41.792Z,-6.00
2024-01-31T18:11:44.575Z,-5.94
2024-01-31T18:13:51.410Z,-5.97
2024-01-31T18:15:54.340Z,-5.94
2024-01-31T18:17:57.408Z,-5.94
2024-01-31T18:20:00.586Z,-5.93
2024-01-31T18:22:06.288Z,-5.97
2024-01-31T18:24:09.218Z,-5.95
2024-01-31T18:26:20.260Z,-5.93
2024-01-31T18:28:24.321Z,-5.92
2024-01-31T18:30:27.096Z,-5.94
2024-01-31T18:32:29.889Z,-5.96
2024-01-31T18:34:33.677Z,-5.95
2024-01-31T18:36:36.688Z,-5.96
2024-01-31T18:38:40.675Z,-5.98
2024-01-31T18:40:43.373Z,-5.97
2024-01-31T18:42:46.078Z,-5.98
2024-01-31T18:44:48.960Z,-5.97
2024-01-31T18:46:54.398Z,-5.96
2024-01-31T18:48:57.435Z,-5.96
2024-01-31T18:51:01.399Z,-5.98
2024-01-31T18:53:04.430Z,-6.00
2024-01-31T18:55:07.668Z,-6.02
2024-01-31T18:57:10.390Z,-6.04
2024-01-31T18:59:13.176Z,-6.06
2024-01-31T19:01:16.914Z,-6.05
2024-01-31T19:03:19.675Z,-6.02
2024-01-31T19:05:24.575Z,-6.03
2024-01-31T19:07:27.581Z,-6.02
2024-01-31T19:09:30.398Z,-6.01
2024-01-31T19:11:33.171Z,-5.99
2024-01-31T19:13:39.002Z,-5.99
2024-01-31T19:15:41.719Z,-5.99
2024-01-31T19:17:48.772Z,-6.01
2024-01-31T19:19:52.328Z,-6.01
2024-01-31T19:21:55.058Z,-6.03
2024-01-31T19:23:57.848Z,-6.02
2024-01-31T19:26:00.789Z,-5.99
2024-01-31T19:28:04.783Z,-5.99
2024-01-31T19:30:15.800Z,-5.98
2024-01-31T19:32:20.331Z,-5.98
2024-01-31T19:34:23.180Z,-6.01
2024-01-31T19:36:27.342Z,-6.02
2024-01-31T19:38:30.156Z,-6.03
2024-01-31T19:40:32.951Z,-6.06
2024-01-31T19:42:36.307Z,-6.13
2024-01-31T19:44:39.211Z,-6.09
2024-01-31T19:46:44.759Z,-6.11
2024-01-31T19:48:49.569Z,-6.10
2024-01-31T19:50:52.634Z,-6.08
2024-01-31T19:52:55.276Z,-6.08
2024-01-31T19:54:58.322Z,-6.13
2024-01-31T19:57:01.204Z,-6.14
2024-01-31T19:59:04.172Z,-6.15
2024-01-31T20:01:06.978Z,-6.13
2024-01-31T20:03:09.801Z,-6.12
2024-01-31T20:05:12.643Z,-6.12
2024-01-31T20:07:15.408Z,-6.12
2024-01-31T20:09:18.201Z,-6.11
2024-01-31T20:11:21.109Z,-6.09
2024-01-31T20:13:23.818Z,-6.06
2024-01-31T20:15:26.521Z,-6.07
2024-01-31T20:17:30.499Z,-6.03
2024-01-31T20:19:33.304Z,-6.04
2024-01-31T20:21:36.238Z,-6.05
2024-01-31T20:23:39.846Z,-6.03
2024-01-31T20:25:42.606Z,-6.01
2024-01-31T20:27:45.498Z,-6.03
2024-01-31T20:29:48.210Z,-6.04
2024-01-31T20:31:50.955Z,-6.03
2024-01-31T20:33:54.346Z,-6.04
2024-01-31T20:35:57.162Z,-6.04
2024-01-31T20:37:59.880Z,-6.02
2024-01-31T20:40:02.717Z,-6.03
2024-01-31T20:42:06.646Z,-6.04
2024-01-31T20:44:09.438Z,-6.06
2024-01-31T20:46:19.468Z,-6.06
2024-01-31T20:48:29.849Z,-6.08
2024-01-31T20:50:41.097Z,-6.09
2024-01-31T20:52:43.810Z,-6.11
2024-01-31T20:54:47.594Z,-6.10
2024-01-31T20:56:50.708Z,-6.12
2024-01-31T20:58:53.458Z,-6.11
2024-01-31T21:00:56.161Z,-6.14
2024-01-31T21:02:58.970Z,-6.15
2024-01-31T21:05:01.677Z,-6.13
2024-01-31T21:07:07.980Z,-6.14
2024-01-31T21:09:11.059Z,-6.10
2024-01-31T21:11:13.879Z,-6.08
2024-01-31T21:13:17.818Z,-6.09
2024-01-31T21:15:20.782Z,-6.08
2024-01-31T21:17:23.515Z,-6.09
2024-01-31T21:19:26.254Z,-6.10
2024-01-31T21:21:28.968Z,-6.13
2024-01-31T21:23:32.847Z,-6.12
2024-01-31T21:25:35.631Z,-6.13
2024-01-31T21:27:38.467Z,-6.14
2024-01-31T21:29:41.601Z,-6.17
2024-01-31T21:31:44.351Z,-6.18
2024-01-31T21:33:47.194Z,-6.19
2024-01-31T21:35:52.026Z,-6.23
2024-01-31T21:37:54.804Z,-6.26
2024-01-31T21:39:57.656Z,-6.27
2024-01-31T21:42:00.403Z,-6.26
2024-01-31T21:44:03.587Z,-6.27
2024-01-31T21:46:07.045Z,-6.27
2024-01-31T21:48:11.162Z,-6.27
2024-01-31T21:50:14.347Z,-6.27
2024-01-31T21:52:17.326Z,-6.28
2024-01-31T21:54:20.023Z,-6.31
2024-01-31T21:56:22.782Z,-6.30
2024-01-31T21:58:25.630Z,-6.35
2024-01-31T22:00:28.390Z,-6.38
2024-01-31T22:02:31.113Z,-6.45
2024-01-31T22:04:34.077Z,-6.41
2024-01-31T22:06:36.935Z,-6.44
2024-01-31T22:08:39.970Z,-6.47
2024-01-31T22:10:42.790Z,-6.46
2024-01-31T22:12:45.537Z,-6.46
2024-01-31T22:14:48.283Z,-6.49
2024-01-31T22:16:51.246Z,-6.48
2024-01-31T22:18:54.200Z,-6.50
2024-01-31T22:20:57.145Z,-6.51
2024-01-31T22:22:59.950Z,-6.52
2024-01-31T22:25:04.011Z,-6.49
2024-01-31T22:27:07.389Z,-6.49
2024-01-31T22:29:10.183Z,-6.50
2024-01-31T22:31:13.035Z,-6.49
2024-01-31T22:33:16.994Z,-6.51
2024-01-31T22:35:19.998Z,-6.59
2024-01-31T22:37:22.674Z,-6.61
2024-01-31T22:39:25.458Z,-6.67
2024-01-31T22:41:28.247Z,-6.69
2024-01-31T22:43:30.939Z,-6.76
2024-01-31T22:45:33.859Z,-6.76
2024-01-31T22:47:36.723Z,-6.75
2024-01-31T22:49:39.721Z,-6.74
2024-01-31T22:51:42.612Z,-6.71
2024-01-31T22:53:45.379Z,-6.73
2024-01-31T22:55:48.277Z,-6.76
2024-01-31T22:57:51.140Z,-6.82
2024-01-31T22:59:54.599Z,-6.92
2024-01-31T23:01:57.472Z,-6.98
2024-01-31T23:04:04.518Z,-7.05
2024-01-31T23:06:07.831Z,-7.10
2024-01-31T23:08:10.655Z,-7.15
2024-01-31T23:10:13.354Z,-7.23
2024-01-31T23:12:18.446Z,-7.26
2024-01-31T23:14:21.734Z,-7.30
2024-01-31T23:16:24.423Z,-7.37
2024-01-31T23:18:27.538Z,-7.39
2024-01-31T23:20:30.409Z,-7.38
2024-01-31T23:22:33.093Z,-7.37
2024-01-31T23:24:35.786Z,-7.40
2024-01-31T23:26:39.157Z,-7.39
2024-01-31T23:28:45.107Z,-7.39
2024-01-31T23:30:47.880Z,-7.41
2024-01-31T23:32:51.564Z,-7.42
2024-01-31T23:34:54.433Z,-7.45
2024-01-31T23:36:57.226Z,-7.45
2024-01-31T23:39:00.610Z,-7.41
2024-01-31T23:41:04.521Z,-7.40
2024-01-31T23:43:07.290Z,-7.41
2024-01-31T23:45:10.501Z,-7.46
2024-01-31T23:47:13.200Z,-7.43
2024-01-31T23:49:16.003Z,-7.44
2024-01-31T23:51:19.792Z,-7.42
2024-01-31T23:53:23.396Z,-7.45
2024-01-31T23:55:26.123Z,-7.49
2024-01-31T23:57:28.859Z,-7.46
2024-01-31T23:59:31.584Z,-7.47
